createdAt,value
2018-05-01T00:02:15.841Z,70.10
2018-05-01T00:04:44.752Z,72.40
2018-05-01T00:07:12.681Z,68.30
2018-05-01T00:09:40.565Z,65.10
2018-05-01T00:12:09.148Z,69.60
2018-05-01T00:14:37.867Z,67.10
2018-05-01T00:17:05.822Z,67.20
2018-05-01T00:19:33.751Z,68.50
2018-05-01T00:22:01.717Z,69.50
2018-05-01T00:24:29.864Z,72.50
2018-05-01T00:26:57.629Z,69.00
2018-05-01T00:29:26.102Z,72.60
2018-05-01T00:31:53.864Z,71.30
2018-05-01T00:34:22.451Z,68.70
2018-05-01T00:36:50.205Z,68.60
2018-05-01T00:39:18.175Z,66.30
2018-05-01T00:41:46.557Z,69.70
2018-05-01T00:44:14.663Z,69.60
2018-05-01T00:46:49.448Z,66.90
2018-05-01T00:52:35.070Z,66.20
2018-05-01T00:55:02.903Z,65.20
2018-05-01T00:57:31.019Z,62.00
2018-05-01T00:59:59.069Z,63.40
2018-05-01T01:02:27.692Z,66.00
2018-05-01T01:04:57.411Z,65.90
2018-05-01T01:07:25.543Z,64.90
2018-05-01T01:09:53.480Z,70.20
2018-05-01T01:12:22.940Z,73.80
2018-05-01T01:14:50.856Z,67.50
2018-05-01T01:17:18.697Z,64.00
2018-05-01T01:19:46.677Z,68.50
2018-05-01T01:22:15.829Z,70.50
2018-05-01T01:24:44.885Z,69.40
2018-05-01T01:27:12.967Z,66.70
2018-05-01T01:29:41.586Z,70.70
2018-05-01T01:32:15.467Z,70.70
2018-05-01T01:34:44.129Z,67.80
2018-05-01T01:37:13.435Z,67.70
2018-05-01T01:45:12.613Z,72.20
2018-05-01T01:47:48.296Z,69.90
2018-05-01T01:50:15.557Z,69.80
2018-05-01T01:52:42.791Z,71.10
2018-05-01T01:55:10.111Z,69.80
2018-05-01T01:57:37.387Z,69.50
2018-05-01T02:00:18.361Z,67.10
2018-05-01T02:02:45.583Z,67.20
2018-05-01T02:05:18.135Z,66.20
2018-05-01T02:07:47.676Z,64.80
2018-05-01T02:10:17.392Z,66.00
2018-05-01T02:12:49.087Z,68.60
2018-05-01T02:15:16.582Z,68.80
2018-05-01T02:17:51.514Z,64.20
2018-05-01T02:20:18.767Z,64.00
2018-05-01T02:22:46.128Z,65.50
2018-05-01T02:25:21.312Z,65.90
2018-05-01T02:27:49.664Z,64.40
2018-05-01T02:30:18.960Z,63.30
2018-05-01T02:32:46.669Z,68.90
2018-05-01T02:35:15.029Z,69.60
2018-05-01T02:37:46.623Z,66.30
2018-05-01T02:40:13.914Z,66.70
2018-05-01T02:42:41.813Z,63.50
2018-05-01T02:45:09.158Z,65.20
2018-05-01T02:47:36.444Z,65.70
2018-05-01T02:50:04.531Z,63.90
2018-05-01T02:52:32.248Z,63.80
2018-05-01T02:54:59.788Z,68.30
2018-05-01T02:57:29.476Z,65.50
2018-05-01T02:59:57.176Z,65.60
2018-05-01T03:02:24.653Z,64.60
2018-05-01T03:04:52.695Z,67.30
2018-05-01T03:07:20.292Z,66.20
2018-05-01T03:09:49.026Z,67.60
2018-05-01T03:12:16.407Z,67.50
2018-05-01T03:14:43.782Z,63.90
2018-05-01T03:17:11.088Z,64.40
2018-05-01T03:19:44.246Z,65.40
2018-05-01T03:22:12.001Z,64.70
2018-05-01T03:24:40.062Z,68.00
2018-05-01T03:27:14.105Z,68.00
2018-05-01T03:29:41.551Z,66.80
2018-05-01T03:32:09.116Z,69.80
2018-05-01T03:34:37.019Z,69.50
2018-05-01T03:37:06.508Z,67.00
2018-05-01T03:39:33.999Z,67.70
2018-05-01T03:42:06.944Z,67.10
2018-05-01T03:44:34.254Z,67.00
2018-05-01T03:49:40.886Z,64.70
2018-05-01T03:52:08.273Z,65.30
2018-05-01T03:54:36.515Z,66.90
2018-05-01T03:57:03.863Z,66.90
2018-05-01T03:59:32.122Z,71.80
2018-05-01T04:01:59.372Z,71.70
2018-05-01T04:04:27.660Z,68.50
2018-05-01T04:06:55.316Z,68.50
2018-05-01T04:09:23.818Z,70.50
2018-05-01T04:11:51.841Z,70.10
2018-05-01T04:14:19.501Z,70.00
2018-05-01T04:16:46.821Z,69.10
2018-05-01T04:19:14.360Z,66.20
2018-05-01T04:21:43.054Z,64.10
2018-05-01T04:24:10.487Z,63.90
2018-05-01T04:29:29.880Z,63.90
2018-05-01T04:31:58.136Z,67.10
2018-05-01T04:34:26.996Z,67.00
2018-05-01T04:36:54.719Z,69.00
2018-05-01T04:39:22.360Z,68.90
2018-05-01T04:41:49.689Z,68.60
2018-05-01T04:44:17.909Z,64.60
2018-05-01T04:46:46.332Z,64.70
2018-05-01T04:49:14.762Z,67.30
2018-05-01T04:51:48.422Z,67.20
2018-05-01T04:54:17.440Z,67.70
2018-05-01T04:56:44.751Z,67.60
2018-05-01T04:59:13.176Z,66.20
2018-05-01T05:01:41.428Z,66.10
2018-05-01T05:04:08.961Z,64.10
2018-05-01T05:06:36.710Z,63.10
2018-05-01T05:09:04.950Z,64.70
2018-05-01T05:11:32.323Z,64.50
2018-05-01T05:14:00.438Z,65.50
2018-05-01T05:16:28.744Z,64.70
2018-05-01T05:18:56.314Z,64.60
2018-05-01T05:21:23.613Z,65.00
2018-05-01T05:23:50.989Z,66.10
2018-05-01T05:26:18.524Z,69.60
2018-05-01T05:28:45.883Z,64.30
2018-05-01T05:31:13.250Z,66.00
2018-05-01T05:33:41.332Z,65.10
2018-05-01T05:36:09.598Z,64.40
2018-05-01T05:38:37.108Z,64.30
2018-05-01T05:41:04.635Z,64.20
2018-05-01T05:43:32.702Z,63.00
2018-05-01T05:46:00.022Z,63.20
2018-05-01T05:48:27.576Z,65.60
2018-05-01T05:53:27.790Z,63.80
2018-05-01T05:55:55.099Z,63.80
2018-05-01T05:58:22.575Z,67.30
2018-05-01T06:00:49.903Z,64.00
2018-05-01T06:03:18.035Z,67.60
2018-05-01T06:05:46.147Z,66.90
2018-05-01T06:08:13.677Z,66.90
2018-05-01T06:10:41.028Z,63.00
2018-05-01T06:13:08.782Z,64.80
2018-05-01T06:15:36.319Z,64.20
2018-05-01T06:18:03.720Z,61.70
2018-05-01T06:20:31.198Z,63.60
2018-05-01T06:22:58.422Z,63.30
2018-05-01T06:25:32.794Z,63.50
2018-05-01T06:28:00.699Z,63.30
2018-05-01T06:30:28.794Z,64.30
2018-05-01T06:32:56.187Z,64.30
2018-05-01T06:35:23.442Z,64.70
2018-05-01T06:37:52.542Z,62.10
2018-05-01T06:40:22.717Z,62.00
2018-05-01T06:42:50.125Z,60.90
2018-05-01T06:45:17.429Z,61.60
2018-05-01T06:47:45.581Z,62.60
2018-05-01T06:50:12.998Z,60.70
2018-05-01T06:52:40.610Z,60.00
2018-05-01T06:55:07.955Z,60.60
2018-05-01T06:57:35.394Z,60.70
2018-05-01T07:00:02.674Z,59.70
2018-05-01T07:02:29.883Z,58.50
2018-05-01T07:04:57.217Z,57.90
2018-05-01T07:07:25.056Z,58.20
2018-05-01T07:09:52.445Z,57.20
2018-05-01T07:12:19.711Z,56.70
2018-05-01T07:14:47.218Z,57.80
2018-05-01T07:17:15.249Z,56.30
2018-05-01T07:19:43.297Z,58.00
2018-05-01T07:22:10.643Z,57.80
2018-05-01T07:24:37.910Z,57.80
2018-05-01T07:27:05.206Z,58.10
2018-05-01T07:29:32.509Z,57.80
2018-05-01T07:31:59.748Z,58.70
2018-05-01T07:34:27.055Z,57.70
2018-05-01T07:36:54.313Z,59.10
2018-05-01T07:39:21.549Z,57.20
2018-05-01T07:41:49.122Z,56.90
2018-05-01T07:44:16.432Z,56.30
2018-05-01T07:46:43.758Z,56.70
2018-05-01T07:49:11.885Z,56.80
2018-05-01T07:51:39.213Z,56.70
2018-05-01T07:54:07.528Z,56.80
2018-05-01T07:56:34.956Z,56.80
2018-05-01T07:59:03.085Z,52.70
2018-05-01T08:01:30.365Z,52.60
2018-05-01T08:03:57.840Z,53.10
2018-05-01T08:06:25.192Z,52.90
2018-05-01T08:08:52.447Z,55.30
2018-05-01T08:11:19.747Z,52.90
2018-05-01T08:13:47.039Z,55.10
2018-05-01T08:16:14.329Z,53.00
2018-05-01T08:18:41.854Z,52.30
2018-05-01T08:21:09.263Z,51.80
2018-05-01T08:23:36.576Z,52.40
2018-05-01T08:26:03.859Z,52.70
2018-05-01T08:28:31.275Z,53.40
2018-05-01T08:30:59.108Z,52.60
2018-05-01T08:33:26.610Z,51.50
2018-05-01T08:35:54.357Z,50.30
2018-05-01T08:38:21.835Z,49.80
2018-05-01T08:40:50.770Z,49.80
2018-05-01T08:43:19.593Z,48.50
2018-05-01T08:45:46.937Z,48.50
2018-05-01T08:48:14.938Z,51.40
2018-05-01T08:50:42.237Z,51.20
2018-05-01T08:53:09.553Z,50.90
2018-05-01T08:55:36.897Z,50.40
2018-05-01T08:58:04.243Z,50.50
2018-05-01T09:00:32.387Z,48.90
2018-05-01T09:03:00.214Z,49.00
2018-05-01T09:05:28.390Z,48.60
2018-05-01T09:07:56.774Z,48.70
2018-05-01T09:10:24.076Z,47.90
2018-05-01T09:12:52.272Z,45.80
2018-05-01T09:15:19.708Z,45.80
2018-05-01T09:17:47.329Z,46.20
2018-05-01T09:20:14.830Z,47.30
2018-05-01T09:22:42.102Z,48.60
2018-05-01T09:25:09.528Z,47.00
2018-05-01T09:27:37.558Z,48.60
2018-05-01T09:30:04.822Z,48.50
2018-05-01T09:32:32.267Z,45.80
2018-05-01T09:34:59.497Z,45.30
2018-05-01T09:37:29.532Z,45.60
2018-05-01T09:39:58.082Z,45.10
2018-05-01T09:42:25.514Z,45.50
2018-05-01T09:44:52.805Z,45.50
2018-05-01T09:47:20.060Z,45.00
2018-05-01T09:49:48.310Z,46.50
2018-05-01T09:52:16.974Z,46.30
2018-05-01T09:54:44.757Z,46.30
2018-05-01T09:57:12.823Z,46.90
2018-05-01T09:59:41.756Z,45.90
2018-05-01T10:02:09.565Z,45.90
2018-05-01T10:04:37.563Z,47.10
2018-05-01T10:07:05.466Z,46.70
2018-05-01T10:09:33.293Z,45.80
2018-05-01T10:12:01.207Z,46.10
2018-05-01T10:14:28.977Z,46.30
2018-05-01T10:16:56.875Z,46.70
2018-05-01T10:19:25.592Z,46.70
2018-05-01T10:21:53.849Z,46.80
2018-05-01T10:24:22.729Z,47.50
2018-05-01T10:26:55.526Z,46.30
2018-05-01T10:29:24.566Z,47.70
2018-05-01T10:31:56.151Z,45.80
2018-05-01T10:34:26.933Z,44.60
2018-05-01T10:36:57.171Z,47.70
2018-05-01T10:42:07.793Z,45.30
2018-05-01T10:44:37.671Z,47.20
2018-05-01T10:47:07.419Z,47.40
2018-05-01T10:49:38.179Z,45.30
2018-05-01T10:54:41.740Z,47.80
2018-05-01T10:59:46.612Z,45.70
2018-05-01T11:04:54.524Z,44.80
2018-05-01T11:07:25.853Z,45.00
2018-05-01T11:09:54.106Z,46.80
2018-05-01T11:12:22.677Z,46.00
2018-05-01T11:14:50.567Z,46.00
2018-05-01T11:17:18.357Z,45.10
2018-05-01T11:19:46.829Z,46.10
2018-05-01T11:22:14.595Z,46.10
2018-05-01T11:24:42.372Z,45.20
2018-05-01T11:27:10.297Z,45.30
2018-05-01T11:29:41.457Z,43.80
2018-05-01T11:32:09.330Z,43.70
2018-05-01T11:34:37.257Z,45.70
2018-05-01T11:37:05.718Z,44.20
2018-05-01T11:39:33.476Z,44.20
2018-05-01T11:42:02.076Z,46.00
2018-05-01T11:44:30.159Z,46.10
2018-05-01T11:46:58.217Z,44.80
2018-05-01T11:49:26.143Z,43.90
2018-05-01T11:51:54.427Z,41.60
2018-05-01T11:54:22.362Z,45.00
2018-05-01T11:56:50.224Z,44.70
2018-05-01T11:59:17.989Z,42.00
2018-05-01T12:01:45.855Z,43.40
2018-05-01T12:04:18.243Z,41.10
2018-05-01T12:06:47.278Z,39.70
2018-05-01T12:09:16.337Z,40.30
2018-05-01T12:11:44.477Z,42.80
2018-05-01T12:14:12.324Z,41.70
2018-05-01T12:16:40.177Z,40.80
2018-05-01T12:19:09.145Z,39.80
2018-05-01T12:21:37.488Z,39.60
2018-05-01T12:24:05.556Z,37.80
2018-05-01T12:26:34.431Z,39.60
2018-05-01T12:29:02.303Z,39.70
2018-05-01T12:31:30.421Z,38.80
2018-05-01T12:33:58.297Z,38.40
2018-05-01T12:36:27.152Z,38.80
2018-05-01T12:38:55.048Z,38.60
2018-05-01T12:41:22.865Z,37.70
2018-05-01T12:43:51.465Z,37.40
2018-05-01T12:46:19.204Z,37.30
2018-05-01T12:48:46.966Z,38.30
2018-05-01T12:51:14.762Z,40.10
2018-05-01T12:53:42.548Z,38.80
2018-05-01T12:56:10.212Z,38.40
2018-05-01T12:58:38.020Z,39.50
2018-05-01T13:01:06.490Z,37.90
2018-05-01T13:03:34.275Z,37.70
2018-05-01T13:06:02.103Z,41.40
2018-05-01T13:08:29.883Z,40.40
2018-05-01T13:10:57.588Z,39.30
2018-05-01T13:13:25.343Z,39.20
2018-05-01T13:15:53.066Z,38.80
2018-05-01T13:18:21.941Z,36.90
2018-05-01T13:20:49.732Z,36.80
2018-05-01T13:23:18.278Z,41.30
2018-05-01T13:25:46.061Z,41.00
2018-05-01T13:28:13.806Z,39.30
2018-05-01T13:30:42.335Z,36.00
2018-05-01T13:33:10.102Z,35.80
2018-05-01T13:35:37.841Z,38.10
2018-05-01T13:38:05.619Z,39.60
2018-05-01T13:40:34.154Z,38.40
2018-05-01T13:43:07.261Z,38.30
2018-05-01T13:45:35.821Z,38.00
2018-05-01T13:48:05.987Z,35.50
2018-05-01T13:50:33.935Z,35.10
2018-05-01T14:01:05.999Z,36.10
2018-05-01T14:27:41.488Z,35.50
2018-05-01T14:33:11.910Z,33.80
2018-05-01T14:38:42.039Z,30.70
2018-05-01T14:41:09.871Z,33.90
2018-05-01T14:43:41.409Z,32.50
2018-05-01T14:46:09.949Z,34.20
2018-05-01T14:48:38.532Z,34.10
2018-05-01T14:51:10.088Z,34.70
2018-05-01T14:53:38.367Z,33.60
2018-05-01T14:56:09.246Z,34.00
2018-05-01T14:58:40.734Z,32.20
2018-05-01T15:01:09.203Z,33.90
2018-05-01T15:03:36.966Z,32.40
2018-05-01T15:09:14.111Z,35.10
2018-05-01T15:14:48.368Z,34.50
2018-05-01T15:17:25.886Z,34.10
2018-05-01T15:22:44.944Z,32.70
2018-05-01T15:25:13.095Z,31.80
2018-05-01T15:30:44.141Z,32.90
2018-05-01T15:33:11.986Z,29.80
2018-05-01T15:35:43.404Z,33.90
2018-05-01T15:38:11.262Z,34.00
2018-05-01T15:40:39.913Z,32.30
2018-05-01T15:43:07.742Z,32.20
2018-05-01T15:45:37.591Z,34.70
2018-05-01T15:48:05.497Z,33.20
2018-05-01T15:50:34.170Z,33.90
2018-05-01T15:53:12.259Z,34.50
2018-05-01T15:55:41.552Z,32.10
2018-05-01T15:58:11.468Z,32.80
2018-05-01T16:00:40.639Z,34.30
2018-05-01T16:03:09.870Z,33.80
2018-05-01T16:05:40.721Z,33.90
2018-05-01T16:08:09.226Z,32.90
2018-05-01T16:10:45.196Z,35.30
2018-05-01T16:13:13.452Z,35.30
2018-05-01T16:15:43.691Z,35.30
2018-05-01T16:18:12.369Z,34.30
2018-05-01T16:20:42.027Z,30.80
2018-05-01T16:23:10.652Z,34.20
2018-05-01T16:25:38.829Z,34.00
2018-05-01T16:28:08.085Z,34.70
2018-05-01T16:30:40.841Z,29.70
2018-05-01T16:33:09.680Z,33.60
2018-05-01T16:35:40.972Z,33.90
2018-05-01T16:38:10.032Z,33.30
2018-05-01T16:40:38.587Z,33.70
2018-05-01T16:43:07.093Z,34.20
2018-05-01T16:45:35.580Z,31.40
2018-05-01T16:48:03.716Z,36.30
2018-05-01T16:50:37.294Z,34.90
2018-05-01T16:53:07.079Z,34.80
2018-05-01T16:55:36.017Z,33.00
2018-05-01T16:58:11.261Z,34.10
2018-05-01T17:00:39.862Z,29.80
2018-05-01T17:03:08.616Z,34.60
2018-05-01T17:05:37.793Z,34.60
2018-05-01T17:08:06.036Z,32.40
2018-05-01T17:10:34.277Z,33.50
2018-05-01T17:13:02.477Z,32.40
2018-05-01T17:15:37.711Z,36.00
2018-05-01T17:18:10.858Z,33.60
2018-05-01T17:20:42.653Z,33.50
2018-05-01T17:23:12.674Z,33.70
2018-05-01T17:25:42.589Z,33.30
2018-05-01T17:28:13.319Z,34.10
2018-05-01T17:30:43.457Z,32.80
2018-05-01T17:33:12.603Z,32.60
2018-05-01T17:35:43.648Z,34.20
2018-05-01T17:38:12.514Z,35.10
2018-05-01T17:40:42.438Z,30.40
2018-05-01T17:43:12.683Z,30.40
2018-05-01T17:45:40.696Z,37.60
2018-05-01T18:24:18.767Z,40.50
2018-05-01T18:26:52.695Z,41.50
2018-05-01T18:29:21.022Z,42.40
2018-05-01T18:31:52.113Z,40.80
2018-05-01T18:34:21.923Z,42.80
2018-05-01T18:36:51.184Z,45.30
2018-05-01T18:39:22.317Z,43.70
2018-05-01T18:41:51.157Z,43.50
2018-05-01T18:44:21.341Z,43.80
2018-05-01T18:46:51.489Z,43.30
2018-05-01T18:49:22.338Z,42.90
2018-05-01T18:51:51.321Z,44.80
2018-05-01T18:54:21.491Z,43.50
2018-05-01T18:56:52.609Z,46.80
2018-05-01T18:59:21.727Z,46.80
2018-05-01T19:01:52.727Z,44.10
2018-05-01T19:04:20.653Z,43.90
2018-05-01T19:06:49.526Z,44.60
2018-05-01T19:09:20.057Z,44.30
2018-05-01T19:11:49.687Z,44.40
2018-05-01T19:14:21.294Z,44.40
2018-05-01T19:16:52.685Z,45.30
2018-05-01T19:19:21.664Z,43.90
2018-05-01T19:21:52.488Z,45.00
2018-05-01T19:24:22.210Z,45.30
2018-05-01T19:26:53.678Z,43.60
2018-05-01T19:29:21.636Z,44.10
2018-05-01T19:31:52.844Z,43.70
2018-05-01T19:34:22.116Z,45.10
2018-05-01T19:36:50.886Z,45.70
2018-05-01T19:39:21.778Z,46.30
2018-05-01T19:41:51.899Z,46.10
2018-05-01T19:44:21.569Z,45.60
2018-05-01T19:46:51.766Z,45.50
2018-05-01T19:49:22.499Z,47.30
2018-05-01T19:51:51.870Z,46.20
2018-05-01T19:54:21.427Z,47.30
2018-05-01T19:56:51.077Z,47.80
2018-05-01T19:59:22.467Z,47.60
2018-05-01T20:01:51.513Z,46.20
2018-05-01T20:04:23.151Z,47.00
2018-05-01T20:06:50.934Z,47.00
2018-05-01T20:09:20.677Z,46.00
2018-05-01T20:11:50.135Z,46.10
2018-05-01T20:14:18.154Z,47.30
2018-05-01T20:16:46.085Z,47.90
2018-05-01T20:19:20.932Z,49.00
2018-05-01T20:21:51.118Z,47.20
2018-05-01T20:24:20.615Z,46.40
2018-05-01T20:26:51.716Z,45.90
2018-05-01T20:29:22.676Z,46.20
2018-05-01T20:31:52.469Z,47.20
2018-05-01T20:34:21.745Z,46.90
2018-05-01T20:36:50.877Z,47.50
2018-05-01T20:39:22.088Z,47.70
2018-05-01T20:41:51.042Z,47.50
2018-05-01T20:44:20.812Z,47.10
2018-05-01T20:46:50.797Z,46.40
2018-05-01T20:49:21.581Z,47.50
2018-05-01T20:51:50.267Z,47.60
2018-05-01T20:54:18.293Z,47.50
2018-05-01T20:56:46.543Z,48.60
2018-05-01T21:05:27.120Z,48.60
2018-05-01T21:08:14.810Z,49.60
2018-05-01T22:24:45.744Z,50.10
2018-05-01T22:33:40.280Z,49.40
2018-05-01T22:36:42.454Z,50.00
